sensor_id;sensor_type;location;lat;lon;timestamp;P1;durP1;ratioP1;P2;durP2;ratioP2
11510;SDS011;5812;48.864;9.190;2022-11-04T00:01:40;1.00;;;1.00;;
11510;SDS011;5812;48.864;9.190;2022-11-04T00:04:10;0.83;;;0.83;;
11510;SDS011;5812;48.864;9.190;2022-11-04T00:06:37;0.60;;;0.60;;
11510;SDS011;5812;48.864;9.190;2022-11-04T00:09:04;0.80;;;0.80;;
11510;SDS011;5812;48.864;9.190;2022-11-04T00:11:31;0.80;;;0.80;;
11510;SDS011;5812;48.864;9.190;2022-11-04T00:14:15;1.13;;;1.13;;
11510;SDS011;5812;48.864;9.190;2022-11-04T00:16:41;1.03;;;1.03;;
11510;SDS011;5812;48.864;9.190;2022-11-04T00:19:26;1.50;;;1.50;;
11510;SDS011;5812;48.864;9.190;2022-11-04T00:21:51;1.30;;;1.30;;
11510;SDS011;5812;48.864;9.190;2022-11-04T00:24:37;1.50;;;1.50;;
11510;SDS011;5812;48.864;9.190;2022-11-04T00:27:21;1.40;;;1.40;;
11510;SDS011;5812;48.864;9.190;2022-11-04T00:30:07;1.20;;;1.20;;
11510;SDS011;5812;48.864;9.190;2022-11-04T00:32:34;1.20;;;1.20;;
11510;SDS011;5812;48.864;9.190;2022-11-04T00:35:19;1.30;;;1.30;;
11510;SDS011;5812;48.864;9.190;2022-11-04T00:37:45;0.90;;;0.90;;
11510;SDS011;5812;48.864;9.190;2022-11-04T00:40:12;1.10;;;1.10;;
11510;SDS011;5812;48.864;9.190;2022-11-04T00:42:39;1.20;;;1.20;;
11510;SDS011;5812;48.864;9.190;2022-11-04T00:45:08;1.07;;;1.07;;
11510;SDS011;5812;48.864;9.190;2022-11-04T00:47:34;0.90;;;0.90;;
11510;SDS011;5812;48.864;9.190;2022-11-04T00:49:59;1.07;;;1.07;;
11510;SDS011;5812;48.864;9.190;2022-11-04T00:52:25;0.90;;;0.90;;
11510;SDS011;5812;48.864;9.190;2022-11-04T00:54:50;1.00;;;1.00;;
11510;SDS011;5812;48.864;9.190;2022-11-04T00:57:16;0.70;;;0.70;;
11510;SDS011;5812;48.864;9.190;2022-11-04T00:59:42;0.97;;;0.97;;
11510;SDS011;5812;48.864;9.190;2022-11-04T01:02:10;0.90;;;0.90;;
11510;SDS011;5812;48.864;9.190;2022-11-04T01:04:35;0.90;;;0.90;;
11510;SDS011;5812;48.864;9.190;2022-11-04T01:07:01;0.90;;;0.90;;
11510;SDS011;5812;48.864;9.190;2022-11-04T01:09:27;0.73;;;0.73;;
11510;SDS011;5812;48.864;9.190;2022-11-04T01:11:53;0.80;;;0.80;;
11510;SDS011;5812;48.864;9.190;2022-11-04T01:14:19;1.13;;;1.13;;
11510;SDS011;5812;48.864;9.190;2022-11-04T01:16:45;0.80;;;0.80;;
11510;SDS011;5812;48.864;9.190;2022-11-04T01:19:13;0.87;;;0.87;;
11510;SDS011;5812;48.864;9.190;2022-11-04T01:21:39;0.90;;;0.90;;
11510;SDS011;5812;48.864;9.190;2022-11-04T01:24:04;0.80;;;0.80;;
11510;SDS011;5812;48.864;9.190;2022-11-04T01:26:30;0.80;;;0.80;;
11510;SDS011;5812;48.864;9.190;2022-11-04T01:28:56;0.93;;;0.93;;
11510;SDS011;5812;48.864;9.190;2022-11-04T01:31:23;0.70;;;0.70;;
11510;SDS011;5812;48.864;9.190;2022-11-04T01:33:51;0.70;;;0.70;;
11510;SDS011;5812;48.864;9.190;2022-11-04T01:36:18;1.00;;;1.00;;
11510;SDS011;5812;48.864;9.190;2022-11-04T01:38:44;0.80;;;0.80;;
11510;SDS011;5812;48.864;9.190;2022-11-04T01:41:23;0.83;;;0.83;;
11510;SDS011;5812;48.864;9.190;2022-11-04T01:46:41;0.67;;;0.67;;
11510;SDS011;5812;48.864;9.190;2022-11-04T01:49:22;0.87;;;0.87;;
11510;SDS011;5812;48.864;9.190;2022-11-04T01:54:52;0.97;;;0.97;;
11510;SDS011;5812;48.864;9.190;2022-11-04T01:57:26;0.70;;;0.70;;
11510;SDS011;5812;48.864;9.190;2022-11-04T01:59:59;0.70;;;0.70;;
11510;SDS011;5812;48.864;9.190;2022-11-04T02:02:26;0.70;;;0.70;;
11510;SDS011;5812;48.864;9.190;2022-11-04T02:04:52;0.60;;;0.60;;
11510;SDS011;5812;48.864;9.190;2022-11-04T02:07:18;0.90;;;0.90;;
11510;SDS011;5812;48.864;9.190;2022-11-04T02:09:43;0.80;;;0.80;;
11510;SDS011;5812;48.864;9.190;2022-11-04T02:12:09;0.80;;;0.80;;
11510;SDS011;5812;48.864;9.190;2022-11-04T02:14:53;0.70;;;0.70;;
11510;SDS011;5812;48.864;9.190;2022-11-04T02:17:24;0.53;;;0.53;;
11510;SDS011;5812;48.864;9.190;2022-11-04T02:34:39;0.67;;;0.67;;
11510;SDS011;5812;48.864;9.190;2022-11-04T02:45:48;0.70;;;0.70;;
11510;SDS011;5812;48.864;9.190;2022-11-04T02:48:20;0.60;;;0.60;;
11510;SDS011;5812;48.864;9.190;2022-11-04T02:53:59;0.60;;;0.60;;
11510;SDS011;5812;48.864;9.190;2022-11-04T02:56:33;0.60;;;0.60;;
11510;SDS011;5812;48.864;9.190;2022-11-04T02:59:04;0.73;;;0.73;;
11510;SDS011;5812;48.864;9.190;2022-11-04T03:01:35;0.50;;;0.50;;
11510;SDS011;5812;48.864;9.190;2022-11-04T03:04:07;0.60;;;0.60;;
11510;SDS011;5812;48.864;9.190;2022-11-04T03:06:37;1.00;;;1.00;;
11510;SDS011;5812;48.864;9.190;2022-11-04T03:09:05;0.60;;;0.60;;
11510;SDS011;5812;48.864;9.190;2022-11-04T03:11:34;0.60;;;0.60;;
11510;SDS011;5812;48.864;9.190;2022-11-04T03:14:05;0.60;;;0.60;;
11510;SDS011;5812;48.864;9.190;2022-11-04T03:16:36;0.77;;;0.77;;
11510;SDS011;5812;48.864;9.190;2022-11-04T03:21:56;0.60;;;0.60;;
11510;SDS011;5812;48.864;9.190;2022-11-04T03:24:28;0.80;;;0.80;;
11510;SDS011;5812;48.864;9.190;2022-11-04T03:26:57;0.60;;;0.60;;
11510;SDS011;5812;48.864;9.190;2022-11-04T03:29:32;0.60;;;0.60;;
11510;SDS011;5812;48.864;9.190;2022-11-04T03:32:05;0.90;;;0.90;;
11510;SDS011;5812;48.864;9.190;2022-11-04T03:34:41;0.40;;;0.40;;
11510;SDS011;5812;48.864;9.190;2022-11-04T03:37:07;0.60;;;0.60;;
11510;SDS011;5812;48.864;9.190;2022-11-04T03:39:32;0.60;;;0.60;;
11510;SDS011;5812;48.864;9.190;2022-11-04T03:41:59;0.90;;;0.90;;
11510;SDS011;5812;48.864;9.190;2022-11-04T03:44:43;0.53;;;0.53;;
11510;SDS011;5812;48.864;9.190;2022-11-04T03:47:23;0.50;;;0.50;;
11510;SDS011;5812;48.864;9.190;2022-11-04T03:49:51;0.70;;;0.70;;
11510;SDS011;5812;48.864;9.190;2022-11-04T03:52:21;0.60;;;0.60;;
11510;SDS011;5812;48.864;9.190;2022-11-04T03:54:47;0.50;;;0.50;;
11510;SDS011;5812;48.864;9.190;2022-11-04T03:57:18;0.80;;;0.80;;
11510;SDS011;5812;48.864;9.190;2022-11-04T04:02:35;0.50;;;0.50;;
11510;SDS011;5812;48.864;9.190;2022-11-04T04:05:28;0.67;;;0.67;;
11510;SDS011;5812;48.864;9.190;2022-11-04T04:10:39;0.90;;;0.90;;
11510;SDS011;5812;48.864;9.190;2022-11-04T04:13:20;0.60;;;0.60;;
11510;SDS011;5812;48.864;9.190;2022-11-04T04:18:36;0.63;;;0.63;;
11510;SDS011;5812;48.864;9.190;2022-11-04T04:21:07;0.73;;;0.73;;
11510;SDS011;5812;48.864;9.190;2022-11-04T04:23:42;0.77;;;0.77;;
11510;SDS011;5812;48.864;9.190;2022-11-04T04:26:28;0.70;;;0.70;;
11510;SDS011;5812;48.864;9.190;2022-11-04T04:29:14;0.70;;;0.70;;
11510;SDS011;5812;48.864;9.190;2022-11-04T04:31:42;1.00;;;1.00;;
11510;SDS011;5812;48.864;9.190;2022-11-04T04:34:16;0.70;;;0.70;;
11510;SDS011;5812;48.864;9.190;2022-11-04T04:36:46;0.97;;;0.97;;
11510;SDS011;5812;48.864;9.190;2022-11-04T04:39:20;0.87;;;0.87;;
11510;SDS011;5812;48.864;9.190;2022-11-04T04:42:08;0.60;;;0.60;;
11510;SDS011;5812;48.864;9.190;2022-11-04T04:44:52;0.80;;;0.80;;
11510;SDS011;5812;48.864;9.190;2022-11-04T04:47:39;0.87;;;0.87;;
11510;SDS011;5812;48.864;9.190;2022-11-04T04:50:10;0.70;;;0.70;;
11510;SDS011;5812;48.864;9.190;2022-11-04T04:52:40;0.90;;;0.90;;
11510;SDS011;5812;48.864;9.190;2022-11-04T04:55:09;1.07;;;1.07;;
11510;SDS011;5812;48.864;9.190;2022-11-04T04:57:35;1.03;;;1.03;;
11510;SDS011;5812;48.864;9.190;2022-11-04T05:00:02;0.93;;;0.93;;
11510;SDS011;5812;48.864;9.190;2022-11-04T05:02:28;0.93;;;0.93;;
11510;SDS011;5812;48.864;9.190;2022-11-04T05:04:54;0.80;;;0.80;;
11510;SDS011;5812;48.864;9.190;2022-11-04T05:07:20;0.90;;;0.90;;
11510;SDS011;5812;48.864;9.190;2022-11-04T05:09:46;0.90;;;0.90;;
11510;SDS011;5812;48.864;9.190;2022-11-04T05:12:12;1.03;;;1.03;;
11510;SDS011;5812;48.864;9.190;2022-11-04T05:14:37;1.00;;;1.00;;
11510;SDS011;5812;48.864;9.190;2022-11-04T05:17:03;1.00;;;1.00;;
11510;SDS011;5812;48.864;9.190;2022-11-04T05:19:28;1.20;;;1.20;;
11510;SDS011;5812;48.864;9.190;2022-11-04T05:21:54;1.20;;;1.20;;
11510;SDS011;5812;48.864;9.190;2022-11-04T05:24:20;1.10;;;1.10;;
11510;SDS011;5812;48.864;9.190;2022-11-04T05:26:45;1.00;;;1.00;;
11510;SDS011;5812;48.864;9.190;2022-11-04T05:29:11;1.10;;;1.10;;
11510;SDS011;5812;48.864;9.190;2022-11-04T05:31:37;2.17;;;2.17;;
11510;SDS011;5812;48.864;9.190;2022-11-04T05:34:03;1.77;;;1.77;;
11510;SDS011;5812;48.864;9.190;2022-11-04T05:36:29;1.87;;;1.87;;
11510;SDS011;5812;48.864;9.190;2022-11-04T05:38:57;1.50;;;1.50;;
11510;SDS011;5812;48.864;9.190;2022-11-04T05:41:22;1.43;;;1.43;;
11510;SDS011;5812;48.864;9.190;2022-11-04T05:44:00;1.50;;;1.50;;
11510;SDS011;5812;48.864;9.190;2022-11-04T05:46:26;1.40;;;1.40;;
11510;SDS011;5812;48.864;9.190;2022-11-04T05:48:53;1.30;;;1.30;;
11510;SDS011;5812;48.864;9.190;2022-11-04T05:51:21;1.10;;;1.10;;
11510;SDS011;5812;48.864;9.190;2022-11-04T05:53:48;1.17;;;1.17;;
11510;SDS011;5812;48.864;9.190;2022-11-04T05:56:14;1.17;;;1.17;;
11510;SDS011;5812;48.864;9.190;2022-11-04T05:58:40;1.33;;;1.33;;
11510;SDS011;5812;48.864;9.190;2022-11-04T06:01:24;1.30;;;1.30;;
11510;SDS011;5812;48.864;9.190;2022-11-04T06:03:52;1.03;;;1.03;;
11510;SDS011;5812;48.864;9.190;2022-11-04T06:06:19;1.20;;;1.20;;
11510;SDS011;5812;48.864;9.190;2022-11-04T06:08:45;1.23;;;1.23;;
11510;SDS011;5812;48.864;9.190;2022-11-04T06:11:11;1.23;;;1.23;;
11510;SDS011;5812;48.864;9.190;2022-11-04T06:13:36;1.40;;;1.40;;
11510;SDS011;5812;48.864;9.190;2022-11-04T06:16:02;1.40;;;1.40;;
11510;SDS011;5812;48.864;9.190;2022-11-04T06:18:27;1.10;;;1.10;;
11510;SDS011;5812;48.864;9.190;2022-11-04T06:23:37;1.70;;;1.70;;
11510;SDS011;5812;48.864;9.190;2022-11-04T06:26:04;2.00;;;2.00;;
11510;SDS011;5812;48.864;9.190;2022-11-04T06:28:30;2.20;;;2.20;;
11510;SDS011;5812;48.864;9.190;2022-11-04T06:30:56;1.60;;;1.60;;
11510;SDS011;5812;48.864;9.190;2022-11-04T06:33:23;1.70;;;1.70;;
11510;SDS011;5812;48.864;9.190;2022-11-04T06:35:48;2.23;;;2.23;;
11510;SDS011;5812;48.864;9.190;2022-11-04T06:38:14;1.60;;;1.60;;
11510;SDS011;5812;48.864;9.190;2022-11-04T06:40:40;1.80;;;1.80;;
11510;SDS011;5812;48.864;9.190;2022-11-04T06:43:05;1.47;;;1.47;;
11510;SDS011;5812;48.864;9.190;2022-11-04T06:45:31;1.70;;;1.70;;
11510;SDS011;5812;48.864;9.190;2022-11-04T06:47:56;1.97;;;1.97;;
11510;SDS011;5812;48.864;9.190;2022-11-04T06:50:22;2.00;;;2.00;;
11510;SDS011;5812;48.864;9.190;2022-11-04T06:52:47;1.77;;;1.77;;
11510;SDS011;5812;48.864;9.190;2022-11-04T06:55:13;1.47;;;1.47;;
11510;SDS011;5812;48.864;9.190;2022-11-04T06:57:39;1.70;;;1.70;;
11510;SDS011;5812;48.864;9.190;2022-11-04T07:00:04;1.73;;;1.73;;
11510;SDS011;5812;48.864;9.190;2022-11-04T07:02:31;2.53;;;2.53;;
11510;SDS011;5812;48.864;9.190;2022-11-04T07:04:56;2.03;;;2.03;;
11510;SDS011;5812;48.864;9.190;2022-11-04T07:07:22;1.77;;;1.77;;
11510;SDS011;5812;48.864;9.190;2022-11-04T07:09:47;1.73;;;1.73;;
11510;SDS011;5812;48.864;9.190;2022-11-04T07:12:13;2.07;;;2.07;;
11510;SDS011;5812;48.864;9.190;2022-11-04T07:14:39;1.77;;;1.77;;
11510;SDS011;5812;48.864;9.190;2022-11-04T07:17:04;1.87;;;1.87;;
11510;SDS011;5812;48.864;9.190;2022-11-04T07:19:30;1.53;;;1.53;;
11510;SDS011;5812;48.864;9.190;2022-11-04T07:21:56;1.60;;;1.60;;
11510;SDS011;5812;48.864;9.190;2022-11-04T07:24:21;1.80;;;1.80;;
11510;SDS011;5812;48.864;9.190;2022-11-04T07:26:47;1.40;;;1.40;;
11510;SDS011;5812;48.864;9.190;2022-11-04T07:29:12;1.70;;;1.70;;
11510;SDS011;5812;48.864;9.190;2022-11-04T07:31:38;1.70;;;1.70;;
11510;SDS011;5812;48.864;9.190;2022-11-04T07:34:04;1.50;;;1.50;;
11510;SDS011;5812;48.864;9.190;2022-11-04T07:36:29;2.20;;;2.20;;
11510;SDS011;5812;48.864;9.190;2022-11-04T07:38:55;2.00;;;2.00;;
11510;SDS011;5812;48.864;9.190;2022-11-04T07:41:21;1.87;;;1.87;;
11510;SDS011;5812;48.864;9.190;2022-11-04T07:43:47;2.30;;;2.30;;
11510;SDS011;5812;48.864;9.190;2022-11-04T07:46:16;2.23;;;2.23;;
11510;SDS011;5812;48.864;9.190;2022-11-04T07:48:43;1.80;;;1.80;;
11510;SDS011;5812;48.864;9.190;2022-11-04T07:51:10;2.00;;;2.00;;
11510;SDS011;5812;48.864;9.190;2022-11-04T07:53:38;1.73;;;1.73;;
11510;SDS011;5812;48.864;9.190;2022-11-04T07:56:05;1.97;;;1.97;;
11510;SDS011;5812;48.864;9.190;2022-11-04T07:58:32;2.17;;;2.17;;
11510;SDS011;5812;48.864;9.190;2022-11-04T08:00:59;2.10;;;2.10;;
11510;SDS011;5812;48.864;9.190;2022-11-04T08:03:26;1.90;;;1.90;;
11510;SDS011;5812;48.864;9.190;2022-11-04T08:05:55;2.00;;;2.00;;
11510;SDS011;5812;48.864;9.190;2022-11-04T08:08:22;2.20;;;2.20;;
11510;SDS011;5812;48.864;9.190;2022-11-04T08:10:59;1.90;;;1.90;;
11510;SDS011;5812;48.864;9.190;2022-11-04T08:13:26;2.00;;;2.00;;
11510;SDS011;5812;48.864;9.190;2022-11-04T08:15:53;2.20;;;2.20;;
11510;SDS011;5812;48.864;9.190;2022-11-04T08:18:19;1.90;;;1.90;;
11510;SDS011;5812;48.864;9.190;2022-11-04T08:20:48;2.17;;;2.17;;
11510;SDS011;5812;48.864;9.190;2022-11-04T08:23:15;1.70;;;1.70;;
11510;SDS011;5812;48.864;9.190;2022-11-04T08:25:41;1.70;;;1.70;;
11510;SDS011;5812;48.864;9.190;2022-11-04T08:28:07;1.60;;;1.60;;
11510;SDS011;5812;48.864;9.190;2022-11-04T08:30:34;1.40;;;1.40;;
11510;SDS011;5812;48.864;9.190;2022-11-04T08:33:00;1.80;;;1.80;;
11510;SDS011;5812;48.864;9.190;2022-11-04T08:35:25;1.83;;;1.83;;
11510;SDS011;5812;48.864;9.190;2022-11-04T08:37:51;1.50;;;1.50;;
11510;SDS011;5812;48.864;9.190;2022-11-04T08:40:16;1.30;;;1.30;;
11510;SDS011;5812;48.864;9.190;2022-11-04T08:42:42;1.50;;;1.50;;
11510;SDS011;5812;48.864;9.190;2022-11-04T08:45:08;1.00;;;1.00;;
11510;SDS011;5812;48.864;9.190;2022-11-04T08:47:33;1.20;;;1.20;;
11510;SDS011;5812;48.864;9.190;2022-11-04T08:49:59;1.63;;;1.63;;
11510;SDS011;5812;48.864;9.190;2022-11-04T08:52:24;2.17;;;2.17;;
11510;SDS011;5812;48.864;9.190;2022-11-04T08:54:52;1.60;;;1.60;;
11510;SDS011;5812;48.864;9.190;2022-11-04T08:57:18;2.10;;;2.10;;
11510;SDS011;5812;48.864;9.190;2022-11-04T08:59:44;1.80;;;1.80;;
11510;SDS011;5812;48.864;9.190;2022-11-04T09:02:12;1.53;;;1.53;;
11510;SDS011;5812;48.864;9.190;2022-11-04T09:04:40;1.50;;;1.50;;
11510;SDS011;5812;48.864;9.190;2022-11-04T09:07:05;1.60;;;1.60;;
11510;SDS011;5812;48.864;9.190;2022-11-04T09:09:31;1.70;;;1.70;;
11510;SDS011;5812;48.864;9.190;2022-11-04T09:11:57;1.93;;;1.93;;
11510;SDS011;5812;48.864;9.190;2022-11-04T09:14:23;1.50;;;1.50;;
11510;SDS011;5812;48.864;9.190;2022-11-04T09:16:49;1.50;;;1.50;;
11510;SDS011;5812;48.864;9.190;2022-11-04T09:19:14;1.83;;;1.83;;
11510;SDS011;5812;48.864;9.190;2022-11-04T09:21:40;1.60;;;1.60;;
11510;SDS011;5812;48.864;9.190;2022-11-04T09:24:06;1.90;;;1.90;;
11510;SDS011;5812;48.864;9.190;2022-11-04T09:26:32;1.57;;;1.57;;
11510;SDS011;5812;48.864;9.190;2022-11-04T09:28:58;1.60;;;1.60;;
11510;SDS011;5812;48.864;9.190;2022-11-04T09:31:26;1.47;;;1.47;;
11510;SDS011;5812;48.864;9.190;2022-11-04T09:33:54;1.20;;;1.20;;
11510;SDS011;5812;48.864;9.190;2022-11-04T09:36:20;0.97;;;0.97;;
11510;SDS011;5812;48.864;9.190;2022-11-04T09:38:46;1.07;;;1.07;;
11510;SDS011;5812;48.864;9.190;2022-11-04T09:44:20;1.30;;;1.30;;
11510;SDS011;5812;48.864;9.190;2022-11-04T09:46:47;0.87;;;0.87;;
11510;SDS011;5812;48.864;9.190;2022-11-04T09:49:15;0.70;;;0.70;;
11510;SDS011;5812;48.864;9.190;2022-11-04T09:51:41;1.00;;;1.00;;
11510;SDS011;5812;48.864;9.190;2022-11-04T09:54:19;0.97;;;0.97;;
11510;SDS011;5812;48.864;9.190;2022-11-04T09:56:59;0.67;;;0.67;;
11510;SDS011;5812;48.864;9.190;2022-11-04T09:59:35;0.93;;;0.93;;
11510;SDS011;5812;48.864;9.190;2022-11-04T10:07:20;0.93;;;0.93;;
11510;SDS011;5812;48.864;9.190;2022-11-04T10:15:52;1.00;;;1.00;;
11510;SDS011;5812;48.864;9.190;2022-11-04T10:27:22;1.10;;;1.10;;
11510;SDS011;5812;48.864;9.190;2022-11-04T10:29:36;0.80;;;0.80;;
11510;SDS011;5812;48.864;9.190;2022-11-04T10:32:25;1.30;;;1.30;;
11510;SDS011;5812;48.864;9.190;2022-11-04T10:35:05;1.00;;;1.00;;
11510;SDS011;5812;48.864;9.190;2022-11-04T10:37:41;0.73;;;0.73;;
11510;SDS011;5812;48.864;9.190;2022-11-04T10:40:19;0.73;;;0.73;;
11510;SDS011;5812;48.864;9.190;2022-11-04T10:42:49;0.70;;;0.70;;
11510;SDS011;5812;48.864;9.190;2022-11-04T10:45:16;1.03;;;1.03;;
11510;SDS011;5812;48.864;9.190;2022-11-04T10:47:47;0.93;;;0.93;;
11510;SDS011;5812;48.864;9.190;2022-11-04T10:52:49;0.97;;;0.97;;
11510;SDS011;5812;48.864;9.190;2022-11-04T10:55:17;1.40;;;1.40;;
11510;SDS011;5812;48.864;9.190;2022-11-04T11:01:29;0.90;;;0.90;;
11510;SDS011;5812;48.864;9.190;2022-11-04T11:03:56;0.90;;;0.90;;
11510;SDS011;5812;48.864;9.190;2022-11-04T11:08:48;1.00;;;1.00;;
11510;SDS011;5812;48.864;9.190;2022-11-04T11:11:16;0.83;;;0.83;;
11510;SDS011;5812;48.864;9.190;2022-11-04T11:13:59;0.90;;;0.90;;
11510;SDS011;5812;48.864;9.190;2022-11-04T11:16:26;0.60;;;0.60;;
11510;SDS011;5812;48.864;9.190;2022-11-04T11:21:49;0.70;;;0.70;;
11510;SDS011;5812;48.864;9.190;2022-11-04T11:24:23;0.90;;;0.90;;
11510;SDS011;5812;48.864;9.190;2022-11-04T11:26:54;0.90;;;0.90;;
11510;SDS011;5812;48.864;9.190;2022-11-04T11:29:26;0.43;;;0.43;;
11510;SDS011;5812;48.864;9.190;2022-11-04T11:31:55;0.77;;;0.77;;
11510;SDS011;5812;48.864;9.190;2022-11-04T11:34:23;0.77;;;0.77;;
11510;SDS011;5812;48.864;9.190;2022-11-04T11:36:56;0.97;;;0.97;;
11510;SDS011;5812;48.864;9.190;2022-11-04T11:39:26;1.10;;;1.10;;
11510;SDS011;5812;48.864;9.190;2022-11-04T11:41:58;0.80;;;0.80;;
11510;SDS011;5812;48.864;9.190;2022-11-04T11:44:35;0.70;;;0.70;;
11510;SDS011;5812;48.864;9.190;2022-11-04T11:47:34;0.70;;;0.70;;
11510;SDS011;5812;48.864;9.190;2022-11-04T11:52:39;1.00;;;1.00;;
11510;SDS011;5812;48.864;9.190;2022-11-04T11:55:10;0.93;;;0.93;;
11510;SDS011;5812;48.864;9.190;2022-11-04T12:00:37;0.40;;;0.40;;
11510;SDS011;5812;48.864;9.190;2022-11-04T12:11:48;0.90;;;0.90;;
11510;SDS011;5812;48.864;9.190;2022-11-04T12:17:26;1.17;;;1.17;;
11510;SDS011;5812;48.864;9.190;2022-11-04T12:25:21;1.00;;;1.00;;
11510;SDS011;5812;48.864;9.190;2022-11-04T12:28:13;0.83;;;0.83;;
11510;SDS011;5812;48.864;9.190;2022-11-04T12:31:00;1.40;;;1.40;;
11510;SDS011;5812;48.864;9.190;2022-11-04T12:33:41;1.10;;;1.10;;
11510;SDS011;5812;48.864;9.190;2022-11-04T12:36:23;0.70;;;0.70;;
11510;SDS011;5812;48.864;9.190;2022-11-04T12:39:04;0.47;;;0.47;;
11510;SDS011;5812;48.864;9.190;2022-11-04T12:44:52;0.87;;;0.87;;
11510;SDS011;5812;48.864;9.190;2022-11-04T13:00:43;0.80;;;0.80;;
11510;SDS011;5812;48.864;9.190;2022-11-04T13:03:15;0.90;;;0.90;;
11510;SDS011;5812;48.864;9.190;2022-11-04T13:05:50;0.70;;;0.70;;
11510;SDS011;5812;48.864;9.190;2022-11-04T13:08:23;0.80;;;0.80;;
11510;SDS011;5812;48.864;9.190;2022-11-04T13:11:00;1.00;;;1.00;;
11510;SDS011;5812;48.864;9.190;2022-11-04T13:16:35;1.00;;;1.00;;
11510;SDS011;5812;48.864;9.190;2022-11-04T13:19:19;0.80;;;0.80;;
11510;SDS011;5812;48.864;9.190;2022-11-04T13:22:05;0.93;;;0.93;;
11510;SDS011;5812;48.864;9.190;2022-11-04T13:24:35;1.00;;;1.00;;
11510;SDS011;5812;48.864;9.190;2022-11-04T13:30:24;1.03;;;1.03;;
11510;SDS011;5812;48.864;9.190;2022-11-04T13:35:39;0.60;;;0.60;;
11510;SDS011;5812;48.864;9.190;2022-11-04T13:38:18;1.00;;;1.00;;
11510;SDS011;5812;48.864;9.190;2022-11-04T13:40:59;1.03;;;1.03;;
11510;SDS011;5812;48.864;9.190;2022-11-04T13:43:50;0.73;;;0.73;;
11510;SDS011;5812;48.864;9.190;2022-11-04T13:48:56;0.70;;;0.70;;
11510;SDS011;5812;48.864;9.190;2022-11-04T13:51:22;0.80;;;0.80;;
11510;SDS011;5812;48.864;9.190;2022-11-04T13:54:26;1.00;;;1.00;;
11510;SDS011;5812;48.864;9.190;2022-11-04T13:57:15;0.90;;;0.90;;
11510;SDS011;5812;48.864;9.190;2022-11-04T14:00:04;1.13;;;1.13;;
11510;SDS011;5812;48.864;9.190;2022-11-04T14:02:43;1.10;;;1.10;;
11510;SDS011;5812;48.864;9.190;2022-11-04T14:08:08;1.03;;;1.03;;
11510;SDS011;5812;48.864;9.190;2022-11-04T14:18:40;0.63;;;0.63;;
11510;SDS011;5812;48.864;9.190;2022-11-04T14:21:14;0.63;;;0.63;;
11510;SDS011;5812;48.864;9.190;2022-11-04T14:23:43;0.70;;;0.70;;
11510;SDS011;5812;48.864;9.190;2022-11-04T14:26:18;0.87;;;0.87;;
11510;SDS011;5812;48.864;9.190;2022-11-04T14:29:00;0.80;;;0.80;;
11510;SDS011;5812;48.864;9.190;2022-11-04T14:31:41;0.60;;;0.60;;
11510;SDS011;5812;48.864;9.190;2022-11-04T14:36:47;0.50;;;0.50;;
11510;SDS011;5812;48.864;9.190;2022-11-04T14:39:26;0.60;;;0.60;;
11510;SDS011;5812;48.864;9.190;2022-11-04T14:44:27;0.67;;;0.67;;
11510;SDS011;5812;48.864;9.190;2022-11-04T14:49:46;0.80;;;0.80;;
11510;SDS011;5812;48.864;9.190;2022-11-04T14:52:25;0.80;;;0.80;;
11510;SDS011;5812;48.864;9.190;2022-11-04T14:55:35;0.60;;;0.60;;
11510;SDS011;5812;48.864;9.190;2022-11-04T14:57:45;2.07;;;2.07;;
11510;SDS011;5812;48.864;9.190;2022-11-04T15:02:45;0.63;;;0.63;;
11510;SDS011;5812;48.864;9.190;2022-11-04T15:05:25;0.80;;;0.80;;
11510;SDS011;5812;48.864;9.190;2022-11-04T15:07:53;0.80;;;0.80;;
11510;SDS011;5812;48.864;9.190;2022-11-04T15:10:20;0.50;;;0.50;;
11510;SDS011;5812;48.864;9.190;2022-11-04T15:12:49;1.00;;;1.00;;
11510;SDS011;5812;48.864;9.190;2022-11-04T15:15:58;0.60;;;0.60;;
11510;SDS011;5812;48.864;9.190;2022-11-04T15:18:12;0.50;;;0.50;;
11510;SDS011;5812;48.864;9.190;2022-11-04T15:20:43;0.70;;;0.70;;
11510;SDS011;5812;48.864;9.190;2022-11-04T15:23:27;0.40;;;0.40;;
11510;SDS011;5812;48.864;9.190;2022-11-04T15:26:02;0.57;;;0.57;;
11510;SDS011;5812;48.864;9.190;2022-11-04T15:28:29;0.50;;;0.50;;
11510;SDS011;5812;48.864;9.190;2022-11-04T15:33:31;0.60;;;0.60;;
11510;SDS011;5812;48.864;9.190;2022-11-04T15:36:07;0.60;;;0.60;;
11510;SDS011;5812;48.864;9.190;2022-11-04T15:38:44;0.57;;;0.57;;
11510;SDS011;5812;48.864;9.190;2022-11-04T15:41:14;1.00;;;1.00;;
11510;SDS011;5812;48.864;9.190;2022-11-04T15:44:02;0.60;;;0.60;;
11510;SDS011;5812;48.864;9.190;2022-11-04T15:46:29;0.70;;;0.70;;
11510;SDS011;5812;48.864;9.190;2022-11-04T15:49:02;0.63;;;0.63;;
11510;SDS011;5812;48.864;9.190;2022-11-04T15:51:33;0.97;;;0.97;;
11510;SDS011;5812;48.864;9.190;2022-11-04T15:54:02;0.70;;;0.70;;
11510;SDS011;5812;48.864;9.190;2022-11-04T15:56:41;1.30;;;1.30;;
11510;SDS011;5812;48.864;9.190;2022-11-04T15:59:19;0.87;;;0.87;;
11510;SDS011;5812;48.864;9.190;2022-11-04T16:01:52;0.50;;;0.50;;
11510;SDS011;5812;48.864;9.190;2022-11-04T16:04:19;0.60;;;0.60;;
11510;SDS011;5812;48.864;9.190;2022-11-04T16:07:00;0.80;;;0.80;;
11510;SDS011;5812;48.864;9.190;2022-11-04T16:09:51;1.17;;;1.17;;
11510;SDS011;5812;48.864;9.190;2022-11-04T16:14:58;1.00;;;1.00;;
11510;SDS011;5812;48.864;9.190;2022-11-04T16:17:24;0.97;;;0.97;;
11510;SDS011;5812;48.864;9.190;2022-11-04T16:19:52;0.70;;;0.70;;
11510;SDS011;5812;48.864;9.190;2022-11-04T16:24:54;0.80;;;0.80;;
11510;SDS011;5812;48.864;9.190;2022-11-04T16:27:21;0.90;;;0.90;;
11510;SDS011;5812;48.864;9.190;2022-11-04T16:29:52;1.10;;;1.10;;
11510;SDS011;5812;48.864;9.190;2022-11-04T16:32:24;0.90;;;0.90;;
11510;SDS011;5812;48.864;9.190;2022-11-04T16:34:53;0.90;;;0.90;;
11510;SDS011;5812;48.864;9.190;2022-11-04T16:37:23;0.80;;;0.80;;
11510;SDS011;5812;48.864;9.190;2022-11-04T16:39:49;0.93;;;0.93;;
11510;SDS011;5812;48.864;9.190;2022-11-04T16:42:15;1.00;;;1.00;;
11510;SDS011;5812;48.864;9.190;2022-11-04T16:45:00;1.10;;;1.10;;
11510;SDS011;5812;48.864;9.190;2022-11-04T16:47:28;1.00;;;1.00;;
11510;SDS011;5812;48.864;9.190;2022-11-04T16:50:00;1.00;;;1.00;;
11510;SDS011;5812;48.864;9.190;2022-11-04T16:52:26;1.10;;;1.10;;
11510;SDS011;5812;48.864;9.190;2022-11-04T16:54:52;1.33;;;1.33;;
11510;SDS011;5812;48.864;9.190;2022-11-04T16:57:21;1.50;;;1.50;;
11510;SDS011;5812;48.864;9.190;2022-11-04T16:59:48;0.97;;;0.97;;
11510;SDS011;5812;48.864;9.190;2022-11-04T17:04:52;1.50;;;1.50;;
11510;SDS011;5812;48.864;9.190;2022-11-04T17:07:18;1.90;;;1.90;;
11510;SDS011;5812;48.864;9.190;2022-11-04T17:09:44;1.43;;;1.43;;
11510;SDS011;5812;48.864;9.190;2022-11-04T17:12:09;2.63;;;2.63;;
11510;SDS011;5812;48.864;9.190;2022-11-04T17:14:35;3.03;;;3.03;;
11510;SDS011;5812;48.864;9.190;2022-11-04T17:17:01;2.23;;;2.23;;
11510;SDS011;5812;48.864;9.190;2022-11-04T17:19:28;2.20;;;2.20;;
11510;SDS011;5812;48.864;9.190;2022-11-04T17:21:54;2.37;;;2.37;;
11510;SDS011;5812;48.864;9.190;2022-11-04T17:24:20;3.20;;;3.20;;
11510;SDS011;5812;48.864;9.190;2022-11-04T17:26:45;2.73;;;2.73;;
11510;SDS011;5812;48.864;9.190;2022-11-04T17:29:11;3.53;;;3.53;;
11510;SDS011;5812;48.864;9.190;2022-11-04T17:31:36;2.90;;;2.90;;
11510;SDS011;5812;48.864;9.190;2022-11-04T17:34:02;3.00;;;3.00;;
11510;SDS011;5812;48.864;9.190;2022-11-04T17:36:27;2.80;;;2.80;;
11510;SDS011;5812;48.864;9.190;2022-11-04T17:38:54;2.87;;;2.87;;
11510;SDS011;5812;48.864;9.190;2022-11-04T17:41:20;2.80;;;2.80;;
11510;SDS011;5812;48.864;9.190;2022-11-04T17:44:04;3.87;;;3.87;;
11510;SDS011;5812;48.864;9.190;2022-11-04T17:46:30;3.50;;;3.50;;
11510;SDS011;5812;48.864;9.190;2022-11-04T17:49:12;2.97;;;2.97;;
11510;SDS011;5812;48.864;9.190;2022-11-04T17:51:39;3.30;;;3.30;;
11510;SDS011;5812;48.864;9.190;2022-11-04T17:54:06;3.13;;;3.13;;
11510;SDS011;5812;48.864;9.190;2022-11-04T17:56:33;3.37;;;3.37;;
11510;SDS011;5812;48.864;9.190;2022-11-04T17:59:00;3.73;;;3.73;;
11510;SDS011;5812;48.864;9.190;2022-11-04T18:01:26;3.27;;;3.27;;
11510;SDS011;5812;48.864;9.190;2022-11-04T18:03:52;3.17;;;3.17;;